Friday, November 17, 2017, 7:32 PM GMT
Back to Local

CWVQ, Ste Anne De Bell 1

Location: , , Canada Lat: 45.433
Local Time: 7:32 PM GMT (19:32 GMT) Lon: -73.933
Time Zone: GMT Elev: 127 ft

Show me the last for .
Show Coded

Time T Td Feel RH Dir Speed Gust Alt SLP Vis Weather Sky Remarks
2017-11-17 19:00 30 18 18 60 280° 13 20 - 30.09 0 Peak wind: 24 mph (21 kts) from 290° at 49 min
2017-11-17 18:00 29 18 15 63 280° 15 24 - 30.07 0 Peak wind: 26 mph (23 kts) from 290° at 35 min
2017-11-17 17:00 29 19 16 66 280° 14 21 - 30.07 0 Peak wind: 26 mph (23 kts) from 250° at 40 min
2017-11-17 16:00 29 19 15 68 280° 15 23 - 30.09 0 Peak wind: 23 mph (20 kts) from 280° at 58 min
2017-11-17 15:00 28 20 14 71 300° 12 20 - 30.10 0 Peak wind: 21 mph (19 kts) from 300° at 48 min
2017-11-17 14:00 29 20 17 66 300° 12 20 - 30.10 0 Peak wind: 21 mph (19 kts) from 290° at 44 min
2017-11-17 13:00 28 21 15 74 290° 15 22 - 30.09 0 Peak wind: 24 mph (21 kts) from 290° at 40 min
2017-11-17 12:00 29 22 15 75 290° 16 23 - 30.05 0 Peak wind: 29 mph (26 kts) from 290° at 47 min
2017-11-17 11:00 31 23 19 71 290° 13 21 - 30.01 0 Peak wind: 26 mph (23 kts) from 280° at 34 min
2017-11-17 10:00 30 24 16 78 280° 15 24 - 29.98 0 Peak wind: 25 mph (22 kts) from 290° at 02 min
2017-11-17 09:00 31 25 17 79 290° 16 24 - 29.95 0 Peak wind: 25 mph (22 kts) from 300° at 23 min
2017-11-17 08:00 31 26 17 78 290° 16 28 - 29.91 0 Peak wind: 27 mph (24 kts) from 280° at 50 min
2017-11-17 07:00 32 27 18 80 290° 14 26 - 29.87 0 Peak wind: 27 mph (24 kts) from 280° at 02 min
2017-11-17 06:00 32 28 18 85 290° 18 25 - 29.84 0 Peak wind: 29 mph (26 kts) from 280° at 24 min
1-hr Precip Total: 0.01"
2017-11-17 05:00 31 30 17 96 280° 17 26 - 29.80 0 Peak wind: 26 mph (23 kts) from 290° at 49 min
2017-11-17 04:00 35 32 22 87 280° 16 26 - 29.76 0 Peak wind: 31 mph (27 kts) from 290° at 14 min
1-hr Precip Total: 0.01"
2017-11-17 03:00 35 35 23 100 280° 14 22 - 29.73 0 Peak wind: 26 mph (23 kts) from 260° at 34 min
1-hr Precip Total: 0.04"
2017-11-17 02:00 39 37 29 91 280° 14 21 - 29.70 0 Peak wind: 23 mph (20 kts) from 280° at 42 min
1-hr Precip Total: 0.01"
2017-11-17 01:00 40 38 35 91 250° 8 - - 29.67 0 None
2017-11-17 00:00 43 40 39 90 240° 7 - - 29.65 0 None
2017-11-16 23:00 43 38 39 82 230° 7 - - 29.65 0 None
2017-11-16 22:00 43 41 40 92 230° 6 - - 29.64 0 1-hr Precip Total: 0.03"
2017-11-16 21:00 44 40 42 87 240° 3 - - 29.64 0 None
2017-11-16 20:00 44 40 36 83 230° 13 20 - 29.63 0 Peak wind: 27 mph (24 kts) from 240° at 17 min
1-hr Precip Total: 0.02"

Support USWX by starting your Amazon purchase here.